Gerald R. Ford International Airport
KGRR : now visible

Airfield :











YOU CAN JOIN US ON...

 
LOGIN :

Register | Disclaimer

   EN    FR    IT 

 









Legend :    VFR   Marginal VFR   IFR   Intensive IFR   Very Intensive IFR
Visi :
Ceiling :
>= 8 km
>= 3000ft
5 to 8 km
1000 to 3000 ft
1500m to 5 km
500 to 1000 ft
800 to 1500m
200 to 500 ft
< 800m
< 200 ft
Symbols :   Thunderstorms  Fog  Heavy snow  Heavy precipitations  Wind > 20 kt






- Airport Elevation : 794 ft
- IATA code : GRR


KGRR - Gerald R. Ford International

CURRENT METAR :
  • 190653Z AUTO 28013G21KT 10SM OVC025 M02/M06 A2998 RMK AO2 SLP161 T10171061

EXPIRED METARs :
  • 190553Z AUTO 27012KT 10SM OVC021 M01/M04 A2996 RMK AO2 UPB01E09SNE01 SLP153 P0000 60000 T10111044 11011 21017 53005
  • 190453Z 25010KT 8SM -SN OVC021 M01/M04 A2995 RMK AO2 SLP152 LAST P0000 T10111039 400001017

TAF KGRR
Valid from the 19 at 06:00 until the 20 at 06:00 UTC


190530Z 1906/2006 27011G20KT P6SM -SHSN OVC015
FM191200 27011KT P6SM -SHSN OVC015
FM191800 27012KT P6SM -SHSN OVC017
FM192100 27012KT P6SM -SHSN OVC020
KZAU FIR / North America



MET'MAP, your aeronautical weather chart ! - Copyright ORBIFLY December 2007 - Disclaimer

ORBIFLY MET'MAP TEAM :

Programming & Development : Alexandra Zaïnal
Concept & original design : Baudouin d'Aumeries
Assistance for programming : Marc-Olivier Méhu
Technical & hardware support : Manuel Goepfert

Contact : metmap@orbifly.com




SOURCES & CREDITS :

   NOAA       Earth
Advisory